sensor_id;sensor_type;location;lat;lon;timestamp;temperature;humidity
10245;DHT22;5167;52.164;10.530;2023-06-14T00:01:44;19.80;5.00
10245;DHT22;5167;52.164;10.530;2023-06-14T00:04:11;19.80;5.00
10245;DHT22;5167;52.164;10.530;2023-06-14T00:06:37;19.80;5.00
10245;DHT22;5167;52.164;10.530;2023-06-14T00:09:03;19.80;5.00
10245;DHT22;5167;52.164;10.530;2023-06-14T00:11:30;19.70;5.00
10245;DHT22;5167;52.164;10.530;2023-06-14T00:13:56;19.70;5.00
10245;DHT22;5167;52.164;10.530;2023-06-14T00:16:22;19.70;5.00
10245;DHT22;5167;52.164;10.530;2023-06-14T00:18:48;19.60;5.00
10245;DHT22;5167;52.164;10.530;2023-06-14T00:21:14;19.60;5.00
10245;DHT22;5167;52.164;10.530;2023-06-14T00:23:39;19.60;5.00
10245;DHT22;5167;52.164;10.530;2023-06-14T00:26:05;19.50;5.00
10245;DHT22;5167;52.164;10.530;2023-06-14T00:28:31;19.40;5.00
10245;DHT22;5167;52.164;10.530;2023-06-14T00:30:56;19.40;5.00
10245;DHT22;5167;52.164;10.530;2023-06-14T00:33:22;19.30;5.00
10245;DHT22;5167;52.164;10.530;2023-06-14T00:35:48;19.30;5.00
10245;DHT22;5167;52.164;10.530;2023-06-14T00:38:13;19.30;5.00
10245;DHT22;5167;52.164;10.530;2023-06-14T00:40:39;19.20;5.00
10245;DHT22;5167;52.164;10.530;2023-06-14T00:43:04;19.20;5.00
10245;DHT22;5167;52.164;10.530;2023-06-14T00:45:31;19.10;5.00
10245;DHT22;5167;52.164;10.530;2023-06-14T00:48:01;19.10;5.00
10245;DHT22;5167;52.164;10.530;2023-06-14T00:50:28;19.10;5.00
10245;DHT22;5167;52.164;10.530;2023-06-14T00:52:55;19.00;5.00
10245;DHT22;5167;52.164;10.530;2023-06-14T00:55:21;19.00;5.00
10245;DHT22;5167;52.164;10.530;2023-06-14T00:57:47;18.90;5.00
10245;DHT22;5167;52.164;10.530;2023-06-14T01:00:13;18.90;5.00
10245;DHT22;5167;52.164;10.530;2023-06-14T01:02:39;18.90;5.00
10245;DHT22;5167;52.164;10.530;2023-06-14T01:05:06;18.80;5.00
10245;DHT22;5167;52.164;10.530;2023-06-14T01:10:52;18.80;5.00
10245;DHT22;5167;52.164;10.530;2023-06-14T01:13:42;18.70;5.00
10245;DHT22;5167;52.164;10.530;2023-06-14T01:16:08;18.70;5.00
10245;DHT22;5167;52.164;10.530;2023-06-14T01:18:35;18.60;5.00
10245;DHT22;5167;52.164;10.530;2023-06-14T01:21:01;18.60;5.00
10245;DHT22;5167;52.164;10.530;2023-06-14T01:23:31;18.60;5.00
10245;DHT22;5167;52.164;10.530;2023-06-14T01:25:57;18.60;5.00
10245;DHT22;5167;52.164;10.530;2023-06-14T01:28:23;18.40;5.00
10245;DHT22;5167;52.164;10.530;2023-06-14T01:30:52;18.50;5.00
10245;DHT22;5167;52.164;10.530;2023-06-14T01:33:24;18.50;5.00
10245;DHT22;5167;52.164;10.530;2023-06-14T01:35:52;18.50;5.00
10245;DHT22;5167;52.164;10.530;2023-06-14T01:38:21;18.40;5.00
10245;DHT22;5167;52.164;10.530;2023-06-14T01:40:48;18.40;5.00
10245;DHT22;5167;52.164;10.530;2023-06-14T01:43:15;18.40;5.00
10245;DHT22;5167;52.164;10.530;2023-06-14T01:45:42;18.40;5.00
10245;DHT22;5167;52.164;10.530;2023-06-14T01:48:09;18.30;5.00
10245;DHT22;5167;52.164;10.530;2023-06-14T01:50:35;18.30;5.00
10245;DHT22;5167;52.164;10.530;2023-06-14T01:53:01;18.30;5.00
10245;DHT22;5167;52.164;10.530;2023-06-14T01:55:27;18.20;5.00
10245;DHT22;5167;52.164;10.530;2023-06-14T01:57:53;18.30;5.00
10245;DHT22;5167;52.164;10.530;2023-06-14T02:00:19;18.20;5.00
10245;DHT22;5167;52.164;10.530;2023-06-14T02:02:45;18.20;5.00
10245;DHT22;5167;52.164;10.530;2023-06-14T02:05:14;18.20;5.00
10245;DHT22;5167;52.164;10.530;2023-06-14T02:07:44;18.10;5.00
10245;DHT22;5167;52.164;10.530;2023-06-14T02:10:10;18.10;5.00
10245;DHT22;5167;52.164;10.530;2023-06-14T02:12:35;18.10;5.00
10245;DHT22;5167;52.164;10.530;2023-06-14T02:15:01;18.00;5.00
10245;DHT22;5167;52.164;10.530;2023-06-14T02:17:26;17.90;5.00
10245;DHT22;5167;52.164;10.530;2023-06-14T02:19:52;18.00;5.00
10245;DHT22;5167;52.164;10.530;2023-06-14T02:22:17;18.00;5.00
10245;DHT22;5167;52.164;10.530;2023-06-14T02:24:43;17.90;5.00
10245;DHT22;5167;52.164;10.530;2023-06-14T02:27:09;17.90;5.00
10245;DHT22;5167;52.164;10.530;2023-06-14T02:29:37;17.90;5.00
10245;DHT22;5167;52.164;10.530;2023-06-14T02:32:04;17.80;5.00
10245;DHT22;5167;52.164;10.530;2023-06-14T02:34:33;17.80;5.00
10245;DHT22;5167;52.164;10.530;2023-06-14T02:36:59;17.80;5.00
10245;DHT22;5167;52.164;10.530;2023-06-14T02:39:25;17.70;5.00
10245;DHT22;5167;52.164;10.530;2023-06-14T02:41:50;17.70;5.00
10245;DHT22;5167;52.164;10.530;2023-06-14T02:44:18;17.70;5.00
10245;DHT22;5167;52.164;10.530;2023-06-14T02:46:44;17.60;5.00
10245;DHT22;5167;52.164;10.530;2023-06-14T02:49:11;17.60;5.00
10245;DHT22;5167;52.164;10.530;2023-06-14T02:51:36;17.50;5.00
10245;DHT22;5167;52.164;10.530;2023-06-14T02:54:02;17.50;5.00
10245;DHT22;5167;52.164;10.530;2023-06-14T02:56:28;17.50;5.00
10245;DHT22;5167;52.164;10.530;2023-06-14T02:58:54;17.40;5.00
10245;DHT22;5167;52.164;10.530;2023-06-14T03:01:20;17.40;5.00
10245;DHT22;5167;52.164;10.530;2023-06-14T03:03:47;17.30;5.00
10245;DHT22;5167;52.164;10.530;2023-06-14T03:06:12;17.30;5.00
10245;DHT22;5167;52.164;10.530;2023-06-14T03:08:39;17.30;5.00
10245;DHT22;5167;52.164;10.530;2023-06-14T03:11:07;17.10;5.00
10245;DHT22;5167;52.164;10.530;2023-06-14T03:13:33;17.10;5.00
10245;DHT22;5167;52.164;10.530;2023-06-14T03:15:59;17.10;5.00
10245;DHT22;5167;52.164;10.530;2023-06-14T03:18:31;17.10;5.00
10245;DHT22;5167;52.164;10.530;2023-06-14T03:21:03;17.00;5.00
10245;DHT22;5167;52.164;10.530;2023-06-14T03:23:28;17.00;5.00
10245;DHT22;5167;52.164;10.530;2023-06-14T03:25:54;17.00;5.00
10245;DHT22;5167;52.164;10.530;2023-06-14T03:28:21;17.00;5.00
10245;DHT22;5167;52.164;10.530;2023-06-14T03:30:46;16.90;5.00
10245;DHT22;5167;52.164;10.530;2023-06-14T03:33:12;16.90;5.00
10245;DHT22;5167;52.164;10.530;2023-06-14T03:35:38;16.90;5.00
10245;DHT22;5167;52.164;10.530;2023-06-14T03:38:03;16.90;5.00
10245;DHT22;5167;52.164;10.530;2023-06-14T03:40:29;16.80;5.00
10245;DHT22;5167;52.164;10.530;2023-06-14T03:42:55;16.90;5.00
10245;DHT22;5167;52.164;10.530;2023-06-14T03:45:21;16.80;5.00
10245;DHT22;5167;52.164;10.530;2023-06-14T03:47:47;16.80;5.00
10245;DHT22;5167;52.164;10.530;2023-06-14T03:50:13;16.70;5.00
10245;DHT22;5167;52.164;10.530;2023-06-14T03:52:39;16.80;5.00
10245;DHT22;5167;52.164;10.530;2023-06-14T03:55:05;16.80;5.00
10245;DHT22;5167;52.164;10.530;2023-06-14T03:57:31;16.80;5.00
10245;DHT22;5167;52.164;10.530;2023-06-14T03:59:57;16.70;5.00
10245;DHT22;5167;52.164;10.530;2023-06-14T04:02:22;16.70;5.00
10245;DHT22;5167;52.164;10.530;2023-06-14T04:04:48;16.70;5.00
10245;DHT22;5167;52.164;10.530;2023-06-14T04:07:15;16.70;5.00
10245;DHT22;5167;52.164;10.530;2023-06-14T04:09:44;16.60;5.00
10245;DHT22;5167;52.164;10.530;2023-06-14T04:12:10;16.70;5.00
10245;DHT22;5167;52.164;10.530;2023-06-14T04:14:39;16.70;5.00
10245;DHT22;5167;52.164;10.530;2023-06-14T04:17:06;16.70;5.00
10245;DHT22;5167;52.164;10.530;2023-06-14T04:19:31;16.70;5.00
10245;DHT22;5167;52.164;10.530;2023-06-14T04:21:58;16.70;5.00
10245;DHT22;5167;52.164;10.530;2023-06-14T04:24:26;16.70;5.00
10245;DHT22;5167;52.164;10.530;2023-06-14T04:26:58;16.80;5.00
10245;DHT22;5167;52.164;10.530;2023-06-14T04:29:24;16.80;5.00
10245;DHT22;5167;52.164;10.530;2023-06-14T04:31:54;16.80;5.00
10245;DHT22;5167;52.164;10.530;2023-06-14T04:34:20;16.80;5.00
10245;DHT22;5167;52.164;10.530;2023-06-14T04:36:47;16.80;5.00
10245;DHT22;5167;52.164;10.530;2023-06-14T04:39:22;17.30;5.00
10245;DHT22;5167;52.164;10.530;2023-06-14T04:41:48;18.50;5.00
10245;DHT22;5167;52.164;10.530;2023-06-14T04:44:18;19.50;5.00
10245;DHT22;5167;52.164;10.530;2023-06-14T04:46:45;20.00;5.00
10245;DHT22;5167;52.164;10.530;2023-06-14T04:49:15;20.10;5.00
10245;DHT22;5167;52.164;10.530;2023-06-14T04:51:41;20.00;5.00
10245;DHT22;5167;52.164;10.530;2023-06-14T04:54:08;19.90;5.00
10245;DHT22;5167;52.164;10.530;2023-06-14T04:56:38;19.70;5.00
10245;DHT22;5167;52.164;10.530;2023-06-14T04:59:04;19.50;5.00
10245;DHT22;5167;52.164;10.530;2023-06-14T05:01:30;19.50;5.00
10245;DHT22;5167;52.164;10.530;2023-06-14T05:04:00;19.60;5.00
10245;DHT22;5167;52.164;10.530;2023-06-14T05:06:26;19.40;5.00
10245;DHT22;5167;52.164;10.530;2023-06-14T05:08:55;19.00;5.00
10245;DHT22;5167;52.164;10.530;2023-06-14T05:11:20;18.80;5.00
10245;DHT22;5167;52.164;10.530;2023-06-14T05:13:46;18.60;5.00
10245;DHT22;5167;52.164;10.530;2023-06-14T05:16:14;18.40;5.00
10245;DHT22;5167;52.164;10.530;2023-06-14T05:18:41;18.30;5.00
10245;DHT22;5167;52.164;10.530;2023-06-14T05:21:06;18.10;5.00
10245;DHT22;5167;52.164;10.530;2023-06-14T05:23:32;18.00;5.00
10245;DHT22;5167;52.164;10.530;2023-06-14T05:25:58;18.00;5.00
10245;DHT22;5167;52.164;10.530;2023-06-14T05:28:24;17.90;5.00
10245;DHT22;5167;52.164;10.530;2023-06-14T05:30:51;18.00;5.00
10245;DHT22;5167;52.164;10.530;2023-06-14T05:33:16;18.00;5.00
10245;DHT22;5167;52.164;10.530;2023-06-14T05:35:42;18.00;5.00
10245;DHT22;5167;52.164;10.530;2023-06-14T05:38:08;18.10;5.00
10245;DHT22;5167;52.164;10.530;2023-06-14T05:40:33;18.20;5.00
10245;DHT22;5167;52.164;10.530;2023-06-14T05:42:59;18.40;5.00
10245;DHT22;5167;52.164;10.530;2023-06-14T05:45:25;18.60;5.00
10245;DHT22;5167;52.164;10.530;2023-06-14T05:47:50;18.60;5.00
10245;DHT22;5167;52.164;10.530;2023-06-14T05:50:16;18.70;5.00
10245;DHT22;5167;52.164;10.530;2023-06-14T05:52:42;18.80;5.00
10245;DHT22;5167;52.164;10.530;2023-06-14T05:55:08;19.00;5.00
10245;DHT22;5167;52.164;10.530;2023-06-14T05:57:34;19.20;5.00
10245;DHT22;5167;52.164;10.530;2023-06-14T05:59:59;19.50;5.00
10245;DHT22;5167;52.164;10.530;2023-06-14T06:02:25;19.80;5.00
10245;DHT22;5167;52.164;10.530;2023-06-14T06:04:50;20.00;5.00
10245;DHT22;5167;52.164;10.530;2023-06-14T06:07:16;20.20;5.00
10245;DHT22;5167;52.164;10.530;2023-06-14T06:09:42;20.40;5.00
10245;DHT22;5167;52.164;10.530;2023-06-14T06:12:07;20.60;5.00
10245;DHT22;5167;52.164;10.530;2023-06-14T06:14:33;20.80;5.00
10245;DHT22;5167;52.164;10.530;2023-06-14T06:16:59;20.90;5.00
10245;DHT22;5167;52.164;10.530;2023-06-14T06:19:24;21.10;5.00
10245;DHT22;5167;52.164;10.530;2023-06-14T06:21:50;21.10;5.00
10245;DHT22;5167;52.164;10.530;2023-06-14T06:24:16;21.30;5.00
10245;DHT22;5167;52.164;10.530;2023-06-14T06:26:42;21.40;5.00
10245;DHT22;5167;52.164;10.530;2023-06-14T06:29:07;21.50;5.00
10245;DHT22;5167;52.164;10.530;2023-06-14T06:31:33;21.60;5.00
10245;DHT22;5167;52.164;10.530;2023-06-14T06:33:58;21.60;5.00
10245;DHT22;5167;52.164;10.530;2023-06-14T06:36:24;21.70;5.00
10245;DHT22;5167;52.164;10.530;2023-06-14T06:38:50;21.80;5.00
10245;DHT22;5167;52.164;10.530;2023-06-14T06:41:15;21.80;5.00
10245;DHT22;5167;52.164;10.530;2023-06-14T06:43:41;22.00;5.00
10245;DHT22;5167;52.164;10.530;2023-06-14T06:46:07;22.10;5.00
10245;DHT22;5167;52.164;10.530;2023-06-14T06:48:33;22.10;5.00
10245;DHT22;5167;52.164;10.530;2023-06-14T06:50:58;22.20;5.00
10245;DHT22;5167;52.164;10.530;2023-06-14T06:53:24;22.30;5.00
10245;DHT22;5167;52.164;10.530;2023-06-14T06:55:49;22.30;5.00
10245;DHT22;5167;52.164;10.530;2023-06-14T06:58:15;22.40;5.00
10245;DHT22;5167;52.164;10.530;2023-06-14T07:00:41;22.50;5.00
10245;DHT22;5167;52.164;10.530;2023-06-14T07:03:06;22.60;5.00
10245;DHT22;5167;52.164;10.530;2023-06-14T07:05:32;22.60;5.00
10245;DHT22;5167;52.164;10.530;2023-06-14T07:07:58;22.60;5.00
10245;DHT22;5167;52.164;10.530;2023-06-14T07:10:23;22.70;5.00
10245;DHT22;5167;52.164;10.530;2023-06-14T07:12:52;22.70;5.00
10245;DHT22;5167;52.164;10.530;2023-06-14T07:15:18;22.80;5.00
10245;DHT22;5167;52.164;10.530;2023-06-14T07:17:46;22.90;5.00
10245;DHT22;5167;52.164;10.530;2023-06-14T07:20:13;23.00;5.00
10245;DHT22;5167;52.164;10.530;2023-06-14T07:22:42;23.10;5.00
10245;DHT22;5167;52.164;10.530;2023-06-14T07:25:12;23.10;5.00
10245;DHT22;5167;52.164;10.530;2023-06-14T07:27:41;23.20;5.00
10245;DHT22;5167;52.164;10.530;2023-06-14T07:30:08;23.20;5.00
10245;DHT22;5167;52.164;10.530;2023-06-14T07:32:34;23.20;5.00
10245;DHT22;5167;52.164;10.530;2023-06-14T07:35:03;23.40;5.00
10245;DHT22;5167;52.164;10.530;2023-06-14T07:37:28;23.40;5.00
10245;DHT22;5167;52.164;10.530;2023-06-14T07:39:54;23.40;5.00
10245;DHT22;5167;52.164;10.530;2023-06-14T07:42:23;23.50;5.00
10245;DHT22;5167;52.164;10.530;2023-06-14T07:44:48;23.60;5.00
10245;DHT22;5167;52.164;10.530;2023-06-14T07:47:15;23.70;5.00
10245;DHT22;5167;52.164;10.530;2023-06-14T07:49:41;23.70;5.00
10245;DHT22;5167;52.164;10.530;2023-06-14T07:52:07;23.80;5.00
10245;DHT22;5167;52.164;10.530;2023-06-14T07:54:32;23.80;5.00
10245;DHT22;5167;52.164;10.530;2023-06-14T07:56:59;23.90;5.00
10245;DHT22;5167;52.164;10.530;2023-06-14T07:59:26;24.10;5.00
10245;DHT22;5167;52.164;10.530;2023-06-14T08:01:52;24.20;5.00
10245;DHT22;5167;52.164;10.530;2023-06-14T08:04:17;24.20;5.00
10245;DHT22;5167;52.164;10.530;2023-06-14T08:06:43;24.20;5.00
10245;DHT22;5167;52.164;10.530;2023-06-14T08:09:11;24.30;5.00
10245;DHT22;5167;52.164;10.530;2023-06-14T08:11:37;24.30;5.00
10245;DHT22;5167;52.164;10.530;2023-06-14T08:14:02;24.40;5.00
10245;DHT22;5167;52.164;10.530;2023-06-14T08:16:28;24.40;5.00
10245;DHT22;5167;52.164;10.530;2023-06-14T08:18:55;24.50;5.00
10245;DHT22;5167;52.164;10.530;2023-06-14T08:21:21;24.60;5.00
10245;DHT22;5167;52.164;10.530;2023-06-14T08:23:47;24.70;5.00
10245;DHT22;5167;52.164;10.530;2023-06-14T08:26:13;24.80;5.00
10245;DHT22;5167;52.164;10.530;2023-06-14T08:28:38;24.80;5.00
10245;DHT22;5167;52.164;10.530;2023-06-14T08:31:04;24.80;5.00
10245;DHT22;5167;52.164;10.530;2023-06-14T08:33:30;24.80;5.00
10245;DHT22;5167;52.164;10.530;2023-06-14T08:35:59;24.90;5.00
10245;DHT22;5167;52.164;10.530;2023-06-14T08:38:25;24.90;5.00
10245;DHT22;5167;52.164;10.530;2023-06-14T08:40:51;25.00;5.00
10245;DHT22;5167;52.164;10.530;2023-06-14T08:43:18;25.10;5.00
10245;DHT22;5167;52.164;10.530;2023-06-14T08:45:46;25.10;5.00
10245;DHT22;5167;52.164;10.530;2023-06-14T08:48:13;25.20;5.00
10245;DHT22;5167;52.164;10.530;2023-06-14T08:50:43;25.30;5.00
10245;DHT22;5167;52.164;10.530;2023-06-14T08:53:13;25.30;5.00
10245;DHT22;5167;52.164;10.530;2023-06-14T08:55:45;25.50;5.00
10245;DHT22;5167;52.164;10.530;2023-06-14T08:58:11;25.50;5.00
10245;DHT22;5167;52.164;10.530;2023-06-14T09:00:40;25.50;5.00
10245;DHT22;5167;52.164;10.530;2023-06-14T09:03:08;25.70;5.00
10245;DHT22;5167;52.164;10.530;2023-06-14T09:05:39;25.70;5.00
10245;DHT22;5167;52.164;10.530;2023-06-14T09:08:05;25.70;5.00
10245;DHT22;5167;52.164;10.530;2023-06-14T09:10:31;25.70;5.00
10245;DHT22;5167;52.164;10.530;2023-06-14T09:13:02;25.70;5.00
10245;DHT22;5167;52.164;10.530;2023-06-14T09:15:29;25.70;5.00
10245;DHT22;5167;52.164;10.530;2023-06-14T09:17:55;25.90;5.00
10245;DHT22;5167;52.164;10.530;2023-06-14T09:20:24;25.90;5.00
10245;DHT22;5167;52.164;10.530;2023-06-14T09:22:50;25.80;5.00
10245;DHT22;5167;52.164;10.530;2023-06-14T09:25:16;25.90;5.00
10245;DHT22;5167;52.164;10.530;2023-06-14T09:27:43;25.90;5.00
10245;DHT22;5167;52.164;10.530;2023-06-14T09:30:11;26.00;5.00
10245;DHT22;5167;52.164;10.530;2023-06-14T09:32:38;26.10;5.00
10245;DHT22;5167;52.164;10.530;2023-06-14T09:35:06;26.20;5.00
10245;DHT22;5167;52.164;10.530;2023-06-14T09:37:32;26.30;5.00
10245;DHT22;5167;52.164;10.530;2023-06-14T09:39:58;26.40;5.00
10245;DHT22;5167;52.164;10.530;2023-06-14T09:42:24;26.50;5.00
10245;DHT22;5167;52.164;10.530;2023-06-14T09:44:55;26.60;5.00
10245;DHT22;5167;52.164;10.530;2023-06-14T09:47:22;26.80;5.00
10245;DHT22;5167;52.164;10.530;2023-06-14T09:49:49;26.90;5.00
10245;DHT22;5167;52.164;10.530;2023-06-14T09:52:20;27.00;5.00
10245;DHT22;5167;52.164;10.530;2023-06-14T09:54:46;27.10;5.00
10245;DHT22;5167;52.164;10.530;2023-06-14T09:57:20;27.20;5.00
10245;DHT22;5167;52.164;10.530;2023-06-14T09:59:46;27.30;5.00
10245;DHT22;5167;52.164;10.530;2023-06-14T10:02:25;27.30;5.00
10245;DHT22;5167;52.164;10.530;2023-06-14T10:05:06;27.10;5.00
10245;DHT22;5167;52.164;10.530;2023-06-14T10:07:49;26.90;5.00
10245;DHT22;5167;52.164;10.530;2023-06-14T10:10:18;26.70;5.00
10245;DHT22;5167;52.164;10.530;2023-06-14T10:12:44;26.40;5.00
10245;DHT22;5167;52.164;10.530;2023-06-14T10:15:15;26.10;5.00
10245;DHT22;5167;52.164;10.530;2023-06-14T10:18:06;25.90;5.00
10245;DHT22;5167;52.164;10.530;2023-06-14T10:20:37;25.80;5.00
10245;DHT22;5167;52.164;10.530;2023-06-14T10:23:16;25.90;5.00
10245;DHT22;5167;52.164;10.530;2023-06-14T10:25:42;25.90;5.00
10245;DHT22;5167;52.164;10.530;2023-06-14T10:28:19;26.00;5.00
10245;DHT22;5167;52.164;10.530;2023-06-14T10:33:35;26.40;5.00
10245;DHT22;5167;52.164;10.530;2023-06-14T10:36:09;26.50;5.00
10245;DHT22;5167;52.164;10.530;2023-06-14T10:38:36;26.70;5.00
10245;DHT22;5167;52.164;10.530;2023-06-14T10:41:04;26.80;5.00
10245;DHT22;5167;52.164;10.530;2023-06-14T10:43:30;26.90;5.00
10245;DHT22;5167;52.164;10.530;2023-06-14T10:46:18;26.90;5.00
10245;DHT22;5167;52.164;10.530;2023-06-14T10:48:48;26.90;5.00
10245;DHT22;5167;52.164;10.530;2023-06-14T10:51:20;26.90;5.00
10245;DHT22;5167;52.164;10.530;2023-06-14T10:53:47;26.80;5.00
10245;DHT22;5167;52.164;10.530;2023-06-14T10:56:33;26.80;5.00
10245;DHT22;5167;52.164;10.530;2023-06-14T10:58:59;26.80;5.00
10245;DHT22;5167;52.164;10.530;2023-06-14T11:04:48;27.00;5.00
10245;DHT22;5167;52.164;10.530;2023-06-14T11:07:50;27.10;5.00
10245;DHT22;5167;52.164;10.530;2023-06-14T11:10:34;27.00;5.00
10245;DHT22;5167;52.164;10.530;2023-06-14T11:13:02;26.80;5.00
10245;DHT22;5167;52.164;10.530;2023-06-14T11:15:32;26.70;5.00
10245;DHT22;5167;52.164;10.530;2023-06-14T11:20:31;26.40;5.00
10245;DHT22;5167;52.164;10.530;2023-06-14T11:22:57;26.40;5.00
10245;DHT22;5167;52.164;10.530;2023-06-14T11:25:23;26.30;5.00
10245;DHT22;5167;52.164;10.530;2023-06-14T11:27:50;26.30;5.00
10245;DHT22;5167;52.164;10.530;2023-06-14T11:30:16;26.10;5.00
10245;DHT22;5167;52.164;10.530;2023-06-14T11:32:46;26.10;5.00
10245;DHT22;5167;52.164;10.530;2023-06-14T11:35:12;26.00;5.00
10245;DHT22;5167;52.164;10.530;2023-06-14T11:37:40;26.10;5.00
10245;DHT22;5167;52.164;10.530;2023-06-14T11:40:08;26.10;5.00
10245;DHT22;5167;52.164;10.530;2023-06-14T11:42:36;25.90;5.00
10245;DHT22;5167;52.164;10.530;2023-06-14T11:45:03;25.90;5.00
10245;DHT22;5167;52.164;10.530;2023-06-14T11:47:34;25.90;5.00
10245;DHT22;5167;52.164;10.530;2023-06-14T11:50:00;26.00;5.00
10245;DHT22;5167;52.164;10.530;2023-06-14T11:52:26;26.10;5.00
10245;DHT22;5167;52.164;10.530;2023-06-14T11:54:53;26.20;5.00
10245;DHT22;5167;52.164;10.530;2023-06-14T11:57:19;26.20;5.00
10245;DHT22;5167;52.164;10.530;2023-06-14T11:59:45;26.10;5.00
10245;DHT22;5167;52.164;10.530;2023-06-14T12:02:18;26.00;5.00
10245;DHT22;5167;52.164;10.530;2023-06-14T12:04:46;25.90;5.00
10245;DHT22;5167;52.164;10.530;2023-06-14T12:07:16;25.90;5.00
10245;DHT22;5167;52.164;10.530;2023-06-14T12:12:17;25.90;5.00
10245;DHT22;5167;52.164;10.530;2023-06-14T12:14:43;25.90;5.00
10245;DHT22;5167;52.164;10.530;2023-06-14T12:17:09;25.80;5.00
10245;DHT22;5167;52.164;10.530;2023-06-14T12:19:42;25.80;5.00
10245;DHT22;5167;52.164;10.530;2023-06-14T12:22:11;25.80;5.00
10245;DHT22;5167;52.164;10.530;2023-06-14T12:24:37;25.80;5.00
10245;DHT22;5167;52.164;10.530;2023-06-14T12:27:04;25.90;5.00
10245;DHT22;5167;52.164;10.530;2023-06-14T12:29:30;25.90;5.00
10245;DHT22;5167;52.164;10.530;2023-06-14T12:31:56;26.00;5.00
10245;DHT22;5167;52.164;10.530;2023-06-14T12:34:28;26.00;5.00
10245;DHT22;5167;52.164;10.530;2023-06-14T12:36:54;26.10;5.00
10245;DHT22;5167;52.164;10.530;2023-06-14T12:39:20;26.10;5.00
10245;DHT22;5167;52.164;10.530;2023-06-14T12:41:50;26.10;5.00
10245;DHT22;5167;52.164;10.530;2023-06-14T12:44:15;26.10;5.00
10245;DHT22;5167;52.164;10.530;2023-06-14T12:46:42;26.10;5.00
10245;DHT22;5167;52.164;10.530;2023-06-14T12:49:09;26.10;5.00
10245;DHT22;5167;52.164;10.530;2023-06-14T12:51:36;26.10;5.00
10245;DHT22;5167;52.164;10.530;2023-06-14T12:54:02;26.00;5.00
10245;DHT22;5167;52.164;10.530;2023-06-14T12:56:27;26.00;5.00
10245;DHT22;5167;52.164;10.530;2023-06-14T12:58:53;26.00;5.00
10245;DHT22;5167;52.164;10.530;2023-06-14T13:01:19;26.00;5.00
10245;DHT22;5167;52.164;10.530;2023-06-14T13:03:46;26.00;5.00
10245;DHT22;5167;52.164;10.530;2023-06-14T13:06:12;26.00;5.00
10245;DHT22;5167;52.164;10.530;2023-06-14T13:08:38;26.00;5.00
10245;DHT22;5167;52.164;10.530;2023-06-14T13:11:03;26.00;5.00
10245;DHT22;5167;52.164;10.530;2023-06-14T13:13:29;26.00;5.00
10245;DHT22;5167;52.164;10.530;2023-06-14T13:15:54;26.10;5.00
10245;DHT22;5167;52.164;10.530;2023-06-14T13:18:20;26.10;5.00
10245;DHT22;5167;52.164;10.530;2023-06-14T13:20:47;26.20;5.00
10245;DHT22;5167;52.164;10.530;2023-06-14T13:23:12;26.30;5.00
10245;DHT22;5167;52.164;10.530;2023-06-14T13:25:41;26.20;5.00
10245;DHT22;5167;52.164;10.530;2023-06-14T13:28:07;26.10;5.00
10245;DHT22;5167;52.164;10.530;2023-06-14T13:30:33;26.20;5.00
10245;DHT22;5167;52.164;10.530;2023-06-14T13:33:03;26.10;5.00
10245;DHT22;5167;52.164;10.530;2023-06-14T13:35:29;25.80;5.00
10245;DHT22;5167;52.164;10.530;2023-06-14T13:37:55;26.00;5.00
10245;DHT22;5167;52.164;10.530;2023-06-14T13:40:20;26.00;5.00
10245;DHT22;5167;52.164;10.530;2023-06-14T13:42:46;25.90;5.00
10245;DHT22;5167;52.164;10.530;2023-06-14T13:45:13;25.90;5.00
10245;DHT22;5167;52.164;10.530;2023-06-14T13:47:38;26.00;5.00
10245;DHT22;5167;52.164;10.530;2023-06-14T13:50:04;26.10;5.00
10245;DHT22;5167;52.164;10.530;2023-06-14T13:52:30;26.10;5.00
10245;DHT22;5167;52.164;10.530;2023-06-14T13:54:56;26.10;5.00
10245;DHT22;5167;52.164;10.530;2023-06-14T13:57:22;26.10;5.00
10245;DHT22;5167;52.164;10.530;2023-06-14T13:59:48;26.20;5.00
10245;DHT22;5167;52.164;10.530;2023-06-14T14:02:14;26.10;5.00
10245;DHT22;5167;52.164;10.530;2023-06-14T14:04:40;26.10;5.00
10245;DHT22;5167;52.164;10.530;2023-06-14T14:07:06;26.00;5.00
10245;DHT22;5167;52.164;10.530;2023-06-14T14:09:35;26.00;5.00
10245;DHT22;5167;52.164;10.530;2023-06-14T14:12:01;25.90;5.00
10245;DHT22;5167;52.164;10.530;2023-06-14T14:14:28;25.90;5.00
10245;DHT22;5167;52.164;10.530;2023-06-14T14:16:54;25.90;5.00
10245;DHT22;5167;52.164;10.530;2023-06-14T14:19:23;26.00;5.00
10245;DHT22;5167;52.164;10.530;2023-06-14T14:21:49;26.00;5.00
10245;DHT22;5167;52.164;10.530;2023-06-14T14:24:15;26.00;5.00
10245;DHT22;5167;52.164;10.530;2023-06-14T14:26:41;26.00;5.00
10245;DHT22;5167;52.164;10.530;2023-06-14T14:29:07;26.00;5.00
10245;DHT22;5167;52.164;10.530;2023-06-14T14:31:33;25.90;5.00
10245;DHT22;5167;52.164;10.530;2023-06-14T14:33:59;25.90;5.00
10245;DHT22;5167;52.164;10.530;2023-06-14T14:36:25;25.90;5.00
10245;DHT22;5167;52.164;10.530;2023-06-14T14:38:50;25.90;5.00
10245;DHT22;5167;52.164;10.530;2023-06-14T14:41:17;25.90;5.00
10245;DHT22;5167;52.164;10.530;2023-06-14T14:43:43;25.90;5.00
10245;DHT22;5167;52.164;10.530;2023-06-14T14:46:08;25.90;5.00
10245;DHT22;5167;52.164;10.530;2023-06-14T14:48:34;26.00;5.00
10245;DHT22;5167;52.164;10.530;2023-06-14T14:51:00;26.00;5.00
10245;DHT22;5167;52.164;10.530;2023-06-14T14:53:26;26.00;5.00
10245;DHT22;5167;52.164;10.530;2023-06-14T14:55:51;26.00;5.00
10245;DHT22;5167;52.164;10.530;2023-06-14T14:58:17;26.00;5.00
10245;DHT22;5167;52.164;10.530;2023-06-14T15:00:44;26.00;5.00
10245;DHT22;5167;52.164;10.530;2023-06-14T15:03:10;26.00;5.00
10245;DHT22;5167;52.164;10.530;2023-06-14T15:05:36;26.00;5.00
10245;DHT22;5167;52.164;10.530;2023-06-14T15:08:03;26.00;5.00
10245;DHT22;5167;52.164;10.530;2023-06-14T15:10:28;26.00;5.00
10245;DHT22;5167;52.164;10.530;2023-06-14T15:12:54;26.00;5.00
10245;DHT22;5167;52.164;10.530;2023-06-14T15:15:21;26.10;5.00
10245;DHT22;5167;52.164;10.530;2023-06-14T15:17:47;26.00;5.00
10245;DHT22;5167;52.164;10.530;2023-06-14T15:20:12;26.00;5.00
10245;DHT22;5167;52.164;10.530;2023-06-14T15:22:39;26.00;5.00
10245;DHT22;5167;52.164;10.530;2023-06-14T15:25:07;26.00;5.00
10245;DHT22;5167;52.164;10.530;2023-06-14T15:27:33;26.10;5.00
10245;DHT22;5167;52.164;10.530;2023-06-14T15:29:59;26.10;5.00
10245;DHT22;5167;52.164;10.530;2023-06-14T15:32:24;26.10;5.00
10245;DHT22;5167;52.164;10.530;2023-06-14T15:34:50;26.00;5.00
10245;DHT22;5167;52.164;10.530;2023-06-14T15:37:16;26.00;5.00
10245;DHT22;5167;52.164;10.530;2023-06-14T15:39:41;26.00;5.00
10245;DHT22;5167;52.164;10.530;2023-06-14T15:42:07;25.80;5.00
10245;DHT22;5167;52.164;10.530;2023-06-14T15:44:33;25.80;5.00
10245;DHT22;5167;52.164;10.530;2023-06-14T15:47:01;25.80;5.00
10245;DHT22;5167;52.164;10.530;2023-06-14T15:49:27;25.70;5.00
10245;DHT22;5167;52.164;10.530;2023-06-14T15:51:53;25.70;5.00
10245;DHT22;5167;52.164;10.530;2023-06-14T15:54:18;25.70;5.00
10245;DHT22;5167;52.164;10.530;2023-06-14T15:56:44;25.70;5.00
10245;DHT22;5167;52.164;10.530;2023-06-14T15:59:10;25.60;5.00